createdAt,value
2022-08-26T00:04:39.103Z,99.90
2022-08-26T00:09:42.247Z,99.90
2022-08-26T00:14:50.543Z,99.90
2022-08-26T00:19:54.914Z,99.90
2022-08-26T00:24:58.306Z,99.90
2022-08-26T00:30:01.724Z,99.90
2022-08-26T00:35:07.654Z,99.90
2022-08-26T00:40:14.067Z,99.90
2022-08-26T00:45:18.237Z,99.90
2022-08-26T00:50:26.041Z,99.90
2022-08-26T00:55:37.816Z,99.90
2022-08-26T01:00:41.261Z,99.90
2022-08-26T01:05:51.119Z,99.90
2022-08-26T01:10:55.951Z,99.90
2022-08-26T01:16:02.867Z,99.90
2022-08-26T01:21:14.401Z,99.90
2022-08-26T01:26:22.773Z,99.90
2022-08-26T01:31:32.302Z,99.90
2022-08-26T01:36:37.036Z,99.90
2022-08-26T01:41:43.989Z,99.90
2022-08-26T01:46:50.645Z,99.90
2022-08-26T01:51:56.398Z,99.90
2022-08-26T01:57:03.382Z,99.90
2022-08-26T02:02:06.433Z,99.90
2022-08-26T02:07:10.216Z,99.90
2022-08-26T02:12:18.529Z,99.90
2022-08-26T02:17:25.639Z,99.90
2022-08-26T02:22:30.622Z,99.90
2022-08-26T02:27:36.059Z,99.90
2022-08-26T02:32:40.247Z,99.90
2022-08-26T02:37:44.467Z,99.90
2022-08-26T02:42:48.938Z,99.90
2022-08-26T02:47:52.560Z,99.90
2022-08-26T02:52:56.616Z,99.90
2022-08-26T02:58:01.529Z,99.90
2022-08-26T03:03:06.438Z,99.90
2022-08-26T03:08:11.786Z,99.90
2022-08-26T03:13:16.030Z,99.90
2022-08-26T03:18:19.026Z,99.90
2022-08-26T03:23:24.082Z,99.90
2022-08-26T03:28:28.633Z,99.90
2022-08-26T03:33:31.756Z,99.90
2022-08-26T03:38:35.016Z,99.90
2022-08-26T03:43:39.680Z,99.90
2022-08-26T03:48:43.947Z,99.90
2022-08-26T03:53:48.331Z,99.90
2022-08-26T03:58:53.143Z,99.90
2022-08-26T04:04:00.190Z,99.90
2022-08-26T04:09:06.628Z,99.90
2022-08-26T04:14:14.348Z,99.90
2022-08-26T04:19:22.641Z,99.90
2022-08-26T04:24:27.962Z,99.90
2022-08-26T04:29:32.638Z,99.90
2022-08-26T04:34:36.103Z,99.90
2022-08-26T04:39:39.270Z,99.90
2022-08-26T04:44:43.809Z,99.90
2022-08-26T04:49:46.961Z,99.90
2022-08-26T04:54:50.246Z,99.90
2022-08-26T04:59:54.587Z,99.90
2022-08-26T05:04:58.405Z,99.90
2022-08-26T05:10:03.356Z,99.90
2022-08-26T05:15:10.296Z,99.90
2022-08-26T05:20:13.379Z,99.90
2022-08-26T05:25:17.408Z,99.90
2022-08-26T05:30:21.823Z,99.90
2022-08-26T05:35:29.090Z,99.90
2022-08-26T05:40:36.207Z,99.90
2022-08-26T05:45:46.173Z,99.90
2022-08-26T05:50:51.526Z,99.90
2022-08-26T05:55:55.164Z,99.90
2022-08-26T06:01:04.249Z,99.90
2022-08-26T06:06:09.558Z,99.90
2022-08-26T06:11:18.293Z,99.90
2022-08-26T06:16:24.580Z,99.90
2022-08-26T06:21:30.107Z,99.90
2022-08-26T06:26:34.508Z,99.90
2022-08-26T06:31:41.028Z,99.90
2022-08-26T06:36:45.055Z,99.90
2022-08-26T06:41:49.336Z,99.90
2022-08-26T06:46:54.892Z,99.90
2022-08-26T06:51:59.015Z,99.90
2022-08-26T06:57:02.264Z,98.30
2022-08-26T07:02:07.281Z,98.60
2022-08-26T07:07:14.261Z,98.20
2022-08-26T07:12:17.669Z,97.30
2022-08-26T07:17:24.961Z,96.00
2022-08-26T07:22:28.212Z,94.90
2022-08-26T07:27:31.814Z,92.30
2022-08-26T07:32:37.544Z,93.60
2022-08-26T07:37:40.674Z,93.30
2022-08-26T07:42:44.597Z,92.20
2022-08-26T07:47:49.004Z,90.20
2022-08-26T07:52:51.985Z,90.70
2022-08-26T07:57:56.312Z,88.80
2022-08-26T08:03:00.872Z,90.40
2022-08-26T08:08:26.929Z,85.00
2022-08-26T08:13:29.708Z,85.40
2022-08-26T08:18:34.174Z,87.30
2022-08-26T08:23:37.903Z,80.20
2022-08-26T08:28:42.124Z,81.90
2022-08-26T08:33:46.912Z,78.20
2022-08-26T08:38:50.158Z,78.20
2022-08-26T08:43:53.481Z,77.40
2022-08-26T08:48:59.864Z,75.80
2022-08-26T08:54:04.427Z,75.70
2022-08-26T08:59:14.763Z,74.30
2022-08-26T09:04:46.220Z,72.50
2022-08-26T09:09:53.019Z,72.00
2022-08-26T09:15:02.394Z,69.20
2022-08-26T09:20:17.061Z,68.00
2022-08-26T09:25:20.181Z,67.50
2022-08-26T09:30:26.421Z,69.30
2022-08-26T09:35:33.422Z,72.10
2022-08-26T09:40:36.831Z,80.10
2022-08-26T09:45:49.355Z,81.30
2022-08-26T09:50:59.020Z,79.20
2022-08-26T09:56:16.328Z,74.00
2022-08-26T10:01:30.071Z,74.00
2022-08-26T10:06:38.466Z,77.90
2022-08-26T10:11:47.636Z,82.50
2022-08-26T10:16:56.448Z,86.30
2022-08-26T10:22:06.062Z,86.40
2022-08-26T10:27:19.609Z,88.00
2022-08-26T10:32:27.910Z,87.10
2022-08-26T10:37:37.464Z,85.40
2022-08-26T10:42:46.256Z,81.80
2022-08-26T10:47:54.701Z,79.50
2022-08-26T10:53:04.115Z,77.40
2022-08-26T10:58:26.490Z,73.20
2022-08-26T11:03:36.714Z,80.50
2022-08-26T11:08:47.638Z,81.90
2022-08-26T11:14:02.407Z,86.00
2022-08-26T11:19:06.472Z,84.40
2022-08-26T11:24:46.617Z,85.40
2022-08-26T11:29:59.169Z,81.90
2022-08-26T11:35:05.212Z,86.90
2022-08-26T11:40:13.449Z,89.50
2022-08-26T11:45:19.468Z,85.70
2022-08-26T11:50:26.279Z,89.00
2022-08-26T11:55:31.765Z,92.00
2022-08-26T12:00:48.403Z,93.70
2022-08-26T12:05:53.151Z,93.30
2022-08-26T12:11:09.115Z,97.10
2022-08-26T12:16:12.829Z,99.90
2022-08-26T12:21:22.710Z,99.90
2022-08-26T12:26:31.114Z,99.90
2022-08-26T12:31:37.226Z,99.90
2022-08-26T12:36:48.725Z,99.90
2022-08-26T12:41:55.417Z,99.90
2022-08-26T12:47:03.019Z,99.90
2022-08-26T12:52:07.614Z,99.90
2022-08-26T12:57:13.234Z,99.90
2022-08-26T13:02:35.383Z,99.90
2022-08-26T13:07:38.575Z,99.90
2022-08-26T13:12:42.990Z,99.90
2022-08-26T13:17:46.029Z,99.90
2022-08-26T13:22:51.949Z,99.90
2022-08-26T13:28:03.623Z,99.90
2022-08-26T13:33:08.241Z,99.90
2022-08-26T13:38:22.318Z,99.90
2022-08-26T13:43:37.612Z,99.90
2022-08-26T13:48:41.140Z,99.90
2022-08-26T13:53:48.270Z,99.90
2022-08-26T13:58:52.725Z,99.90
2022-08-26T14:03:56.186Z,99.90
2022-08-26T14:09:00.328Z,99.90
2022-08-26T14:14:04.799Z,99.90
2022-08-26T14:19:09.388Z,99.90
2022-08-26T14:24:12.535Z,99.90
2022-08-26T14:29:17.126Z,99.90
2022-08-26T14:34:20.413Z,99.90
2022-08-26T14:39:23.796Z,99.90
2022-08-26T14:44:31.832Z,99.90
2022-08-26T14:49:35.380Z,99.90
2022-08-26T14:54:38.458Z,99.90
2022-08-26T14:59:45.523Z,99.90
2022-08-26T15:04:53.290Z,99.90
2022-08-26T15:09:56.352Z,99.90
2022-08-26T15:15:00.835Z,99.90
2022-08-26T15:20:06.167Z,99.90
2022-08-26T15:25:10.536Z,99.90
2022-08-26T15:30:16.582Z,99.90
2022-08-26T15:35:19.780Z,99.90
2022-08-26T15:40:22.934Z,99.90
2022-08-26T15:45:27.659Z,99.90
2022-08-26T15:50:30.858Z,99.90
2022-08-26T15:55:33.972Z,99.90
2022-08-26T16:00:39.439Z,99.90
2022-08-26T16:05:46.540Z,99.90
2022-08-26T16:10:51.317Z,99.90
2022-08-26T16:15:55.837Z,99.90
2022-08-26T16:21:13.742Z,99.90
2022-08-26T16:26:19.941Z,99.90
2022-08-26T16:31:24.584Z,99.90
2022-08-26T16:36:28.037Z,99.90
2022-08-26T16:41:31.755Z,99.90
2022-08-26T16:46:36.305Z,99.90
2022-08-26T16:51:39.472Z,99.90
2022-08-26T16:56:42.613Z,99.90
2022-08-26T17:01:47.125Z,99.90
2022-08-26T17:06:50.286Z,99.90
2022-08-26T17:11:54.352Z,99.90
2022-08-26T17:16:59.301Z,99.90
2022-08-26T17:22:02.495Z,99.90
2022-08-26T17:27:10.391Z,99.90
2022-08-26T17:32:14.865Z,99.90
2022-08-26T17:37:18.201Z,99.90
2022-08-26T17:42:21.407Z,99.90
2022-08-26T17:47:36.248Z,99.90
2022-08-26T17:52:40.657Z,99.90
2022-08-26T17:57:44.358Z,99.90
2022-08-26T18:02:58.252Z,99.90
2022-08-26T18:08:01.419Z,99.90
2022-08-26T18:13:04.724Z,99.90
2022-08-26T18:18:09.504Z,99.90
2022-08-26T18:23:12.971Z,99.90
2022-08-26T18:28:16.032Z,99.90
2022-08-26T18:33:22.185Z,99.90
2022-08-26T18:38:25.283Z,99.90
2022-08-26T18:43:31.452Z,99.90
2022-08-26T18:48:36.984Z,99.90
2022-08-26T18:53:41.943Z,99.90
2022-08-26T18:58:45.171Z,99.90
2022-08-26T19:03:50.181Z,99.90
2022-08-26T19:08:53.732Z,99.90
2022-08-26T19:13:57.036Z,99.90
2022-08-26T19:19:01.988Z,99.90
2022-08-26T19:24:09.361Z,99.90
2022-08-26T19:29:13.782Z,99.90
2022-08-26T19:34:20.918Z,99.90
2022-08-26T19:39:25.280Z,99.90
2022-08-26T19:44:47.047Z,99.90
2022-08-26T19:49:54.296Z,99.90
2022-08-26T19:54:57.441Z,99.90
2022-08-26T20:00:01.079Z,99.90
2022-08-26T20:05:08.675Z,99.90
2022-08-26T20:10:13.431Z,99.90
2022-08-26T20:15:16.882Z,99.90
2022-08-26T20:20:40.263Z,99.90
2022-08-26T20:25:43.299Z,99.90
2022-08-26T20:30:46.532Z,99.90
2022-08-26T20:35:51.335Z,99.90
2022-08-26T20:40:54.402Z,99.90
2022-08-26T20:45:59.796Z,99.90
2022-08-26T20:51:05.605Z,99.90
2022-08-26T20:56:09.393Z,99.90
2022-08-26T21:01:19.553Z,99.90
2022-08-26T21:06:24.759Z,99.90
2022-08-26T21:11:27.782Z,99.90
2022-08-26T21:16:30.989Z,99.90
2022-08-26T21:21:35.623Z,99.90
2022-08-26T21:26:39.230Z,99.90
2022-08-26T21:31:46.421Z,99.90
2022-08-26T21:36:51.344Z,99.90
2022-08-26T21:41:54.512Z,99.90
2022-08-26T21:46:57.639Z,99.90
2022-08-26T21:52:04.565Z,99.90
2022-08-26T21:57:07.785Z,99.90
2022-08-26T22:02:10.946Z,99.90
2022-08-26T22:07:17.060Z,99.90
2022-08-26T22:12:20.206Z,99.90
2022-08-26T22:17:23.286Z,99.90
2022-08-26T22:22:28.599Z,99.90
2022-08-26T22:27:31.105Z,99.90
2022-08-26T22:32:34.546Z,99.90
2022-08-26T22:37:39.378Z,99.90
2022-08-26T22:42:42.500Z,99.90
2022-08-26T22:47:59.471Z,99.90
2022-08-26T22:53:04.394Z,99.90
2022-08-26T22:58:07.962Z,99.90
2022-08-26T23:03:11.593Z,99.90
2022-08-26T23:08:16.789Z,99.90
2022-08-26T23:13:20.562Z,99.90
2022-08-26T23:18:23.637Z,99.90
2022-08-26T23:23:28.470Z,99.90
2022-08-26T23:28:31.910Z,99.90
2022-08-26T23:33:53.814Z,99.90
2022-08-26T23:38:58.245Z,99.90
2022-08-26T23:44:03.690Z,99.90
2022-08-26T23:49:07.050Z,99.90
2022-08-26T23:54:11.981Z,99.90
2022-08-26T23:59:15.609Z,99.90
